Time;durP1;ratioP1;P1;durP2;ratioP2;P2;SDS_P1;SDS_P2;PMS_P1;PMS_P2;Temp;Humidity;BMP_temperature;BMP_pressure;BME280_temperature;BME280_humidity;BME280_pressure;Samples;Min_cycle;Max_cycle;Signal;HPM_P1;HPM_P2
2022/12/27 00:00:18;;;;;;;5.80;1.75;;;28.00;58.60;;;;;;4056747;29;20063;-53
2022/12/27 00:02:41;;;;;;;6.35;2.10;;;28.00;58.80;;;;;;4063873;29;20074;-49
2022/12/27 00:05:05;;;;;;;6.93;1.85;;;28.00;58.80;;;;;;4050540;29;20048;-49
2022/12/27 00:07:27;;;;;;;4.50;1.90;;;28.10;58.50;;;;;;4064927;29;20436;-43
2022/12/27 00:09:50;;;;;;;3.83;1.45;;;28.00;58.10;;;;;;4055055;29;20156;-44
2022/12/27 00:12:12;;;;;;;2.35;1.40;;;28.10;57.60;;;;;;4066112;29;20032;-44
2022/12/27 00:14:35;;;;;;;1.98;1.10;;;28.10;57.40;;;;;;4055738;29;20089;-47
2022/12/27 00:16:57;;;;;;;2.72;1.35;;;28.00;57.70;;;;;;4064002;29;20086;-47
2022/12/27 00:19:20;;;;;;;2.95;1.30;;;28.00;56.90;;;;;;4062306;29;20054;-44
2022/12/27 00:21:42;;;;;;;1.88;0.90;;;28.00;56.70;;;;;;4057914;29;20064;-45
2022/12/27 00:24:05;;;;;;;2.33;1.30;;;28.10;57.00;;;;;;4059155;29;20397;-45
2022/12/27 00:26:30;;;;;;;1.60;1.20;;;28.00;56.20;;;;;;4058627;29;20035;-47
2022/12/27 00:28:53;;;;;;;1.40;0.95;;;28.10;56.70;;;;;;4049004;29;20570;-45
2022/12/27 00:31:17;;;;;;;4.68;1.30;;;28.00;57.00;;;;;;4056396;29;20405;-47
2022/12/27 00:33:39;;;;;;;;;;;28.00;57.40;;;;;;4054083;29;20052;-50
2022/12/27 00:36:04;;;;;;;3.05;1.20;;;27.90;57.60;;;;;;4056981;29;19915;-47
2022/12/27 00:38:26;;;;;;;2.17;0.90;;;27.90;57.90;;;;;;4050034;29;20075;-43
2022/12/27 00:40:49;;;;;;;1.95;0.85;;;27.90;58.00;;;;;;4056093;29;20044;-46
2022/12/27 00:43:11;;;;;;;1.98;0.93;;;27.90;58.10;;;;;;4058810;29;20343;-45
2022/12/27 00:45:34;;;;;;;2.10;0.80;;;27.90;58.20;;;;;;4066494;29;20048;-45
2022/12/27 00:47:56;;;;;;;0.93;0.68;;;27.90;58.30;;;;;;4061774;29;20536;-44
2022/12/27 00:50:19;;;;;;;1.20;0.70;;;27.90;58.30;;;;;;4060133;29;20052;-45
2022/12/27 00:52:41;;;;;;;1.30;0.80;;;27.90;58.40;;;;;;4064114;29;20040;-45
2022/12/27 00:55:04;;;;;;;0.77;0.60;;;27.80;58.30;;;;;;4064648;29;20310;-44
2022/12/27 00:57:27;;;;;;;1.52;0.70;;;27.90;58.40;;;;;;4063490;29;20046;-42
2022/12/27 00:59:49;;;;;;;1.08;0.60;;;27.90;58.30;;;;;;4057051;29;20040;-44
2022/12/27 01:02:12;;;;;;;1.95;0.85;;;27.90;58.30;;;;;;4057561;29;20048;-46
2022/12/27 01:04:34;;;;;;;0.82;0.50;;;27.90;58.30;;;;;;4058546;29;20047;-46
2022/12/27 01:06:57;;;;;;;1.25;0.63;;;27.90;58.30;;;;;;4058833;29;20067;-42
2022/12/27 01:09:19;;;;;;;0.93;0.63;;;27.90;58.20;;;;;;4055915;29;20111;-41
2022/12/27 01:11:41;;;;;;;1.15;0.50;;;27.90;58.20;;;;;;4051819;29;20531;-44
2022/12/27 01:14:05;;;;;;;0.70;0.70;;;27.90;58.20;;;;;;4062102;29;20521;-46
2022/12/27 01:16:29;;;;;;;1.20;0.52;;;27.90;58.20;;;;;;4023458;29;20049;-46
2022/12/27 01:18:52;;;;;;;0.70;0.40;;;28.00;58.20;;;;;;4021378;29;20086;-44
2022/12/27 01:21:17;;;;;;;1.45;0.68;;;28.00;58.20;;;;;;4025594;29;20040;-48
2022/12/27 01:23:40;;;;;;;1.25;0.70;;;28.00;58.10;;;;;;4022288;29;20077;-46
2022/12/27 01:26:06;;;;;;;2.08;0.73;;;28.00;58.00;;;;;;4021658;29;20490;-46
2022/12/27 01:28:29;;;;;;;1.15;0.60;;;28.00;57.70;;;;;;4024058;29;20112;-43
2022/12/27 01:30:51;;;;;;;1.83;0.70;;;28.10;57.60;;;;;;4024485;29;20157;-42
2022/12/27 01:33:16;;;;;;;1.63;0.88;;;28.00;57.50;;;;;;4026291;29;20041;-42
2022/12/27 01:35:38;;;;;;;1.90;0.80;;;28.00;57.50;;;;;;4022935;29;20533;-43
2022/12/27 01:38:01;;;;;;;2.90;1.00;;;28.10;57.60;;;;;;4024810;29;20041;-42
2022/12/27 01:40:24;;;;;;;1.65;0.77;;;28.10;57.40;;;;;;4025710;29;20045;-46
2022/12/27 01:42:53;;;;;;;1.13;0.55;;;28.10;57.30;;;;;;4028296;29;20079;-44
2022/12/27 01:45:31;;;;;;;1.85;0.70;;;28.10;57.40;;;;;;4022214;29;20106;-47
2022/12/27 01:47:56;;;;;;;1.83;0.98;;;28.10;57.40;;;;;;4016219;29;20037;-46
2022/12/27 01:50:23;;;;;;;2.33;0.50;;;28.20;57.50;;;;;;4020412;29;20245;-43
2022/12/27 01:52:49;;;;;;;0.63;0.40;;;28.20;57.50;;;;;;4023603;29;20036;-44
2022/12/27 01:55:42;;;;;;;1.33;0.65;;;28.20;57.40;;;;;;4019711;29;20048;-50
2022/12/27 01:58:28;;;;;;;0.93;0.60;;;28.20;57.50;;;;;;4018793;29;20056;-50
2022/12/27 02:00:51;;;;;;;1.55;0.77;;;28.20;57.50;;;;;;4023812;29;20379;-44
2022/12/27 02:03:34;;;;;;;2.30;0.80;;;28.20;57.50;;;;;;4022230;29;20493;-47
2022/12/27 02:05:58;;;;;;;0.77;0.50;;;28.20;57.50;;;;;;4020815;29;20436;-44
2022/12/27 02:08:56;;;;;;;1.13;0.80;;;28.30;57.50;;;;;;4022923;29;20124;-49
2022/12/27 02:11:49;;;;;;;1.38;0.70;;;28.30;57.40;;;;;;4019312;29;20141;-46
2022/12/27 02:14:04;;;;;;;1.58;0.70;;;28.30;57.30;;;;;;4024256;29;20053;-45
2022/12/27 02:16:27;;;;;;;1.13;0.50;;;28.30;57.10;;;;;;4020101;29;20059;-47
2022/12/27 02:18:49;;;;;;;1.00;0.63;;;28.30;57.00;;;;;;4026207;29;20052;-43
2022/12/27 02:21:52;;;;;;;1.88;0.65;;;28.40;57.10;;;;;;4027067;29;20041;-45
2022/12/27 02:24:39;;;;;;;0.90;0.52;;;28.30;57.00;;;;;;4024047;29;20048;-47
2022/12/27 02:27:19;;;;;;;1.65;0.75;;;28.40;56.70;;;;;;4033007;29;20127;-46
2022/12/27 02:29:44;;;;;;;1.88;0.70;;;28.40;56.50;;;;;;4021052;29;20037;-46
2022/12/27 02:32:21;;;;;;;1.05;0.60;;;28.50;56.70;;;;;;4029329;29;20041;-50
2022/12/27 02:35:06;;;;;;;1.42;0.70;;;28.40;56.60;;;;;;4021350;29;20569;-46
2022/12/27 02:37:32;;;;;;;1.42;0.70;;;28.50;56.50;;;;;;4025941;29;20486;-49
2022/12/27 02:53:02;;;;;;;0.98;0.60;;;28.50;56.50;;;;;;4022754;29;20041;-46
2022/12/27 02:54:39;;;;;;;1.27;0.57;;;28.60;56.10;;;;;;4024244;29;20065;-45
2022/12/27 02:57:22;;;;;;;0.90;0.52;;;28.60;55.60;;;;;;4025167;29;20041;-48
2022/12/27 03:09:06;;;;;;;1.45;0.75;;;28.70;55.60;;;;;;4029771;29;20486;-43
2022/12/27 03:17:18;;;;;;;0.63;0.60;;;28.70;55.50;;;;;;4057892;29;20405;-47
2022/12/27 03:25:30;;;;;;;0.60;0.60;;;28.80;55.00;;;;;;4055059;29;20040;-46
2022/12/27 03:33:19;;;;;;;2.13;0.63;;;28.80;54.60;;;;;;4048448;29;20334;-49
2022/12/27 03:38:01;;;;;;;1.17;0.60;;;28.80;54.80;;;;;;4048109;29;20040;-44
2022/12/27 03:38:35;;;;;;;2.10;0.50;;;28.90;54.90;;;;;;4048417;29;20218;-48
2022/12/27 03:43:43;;;;;;;1.15;0.63;;;28.90;54.90;;;;;;4049076;29;20041;-44
2022/12/27 03:46:34;;;;;;;1.00;0.50;;;29.00;55.00;;;;;;4041116;29;20485;-47
2022/12/27 03:49:31;;;;;;;1.48;0.70;;;29.00;54.90;;;;;;4043583;29;20032;-45
2022/12/27 03:52:06;;;;;;;1.58;0.50;;;29.00;54.70;;;;;;4048647;29;20099;-43
2022/12/27 03:54:36;;;;;;;2.05;0.90;;;29.00;54.70;;;;;;4049646;29;20428;-48
2022/12/27 03:57:05;;;;;;;1.40;0.80;;;29.00;54.50;;;;;;4048069;29;20397;-46
2022/12/27 03:59:28;;;;;;;0.93;0.57;;;29.10;54.60;;;;;;4052181;29;20043;-46
2022/12/27 04:01:50;;;;;;;0.35;0.35;;;29.10;54.60;;;;;;4048116;29;20032;-45
2022/12/27 04:04:13;;;;;;;1.25;0.43;;;29.10;54.40;;;;;;4051866;29;20071;-47
2022/12/27 04:06:35;;;;;;;0.45;0.38;;;29.10;54.40;;;;;;4049633;29;20246;-43
2022/12/27 04:35:42;;;;;;;0.50;0.40;;;29.40;53.80;;;;;;4054930;29;20515;-44
2022/12/27 04:38:05;;;;;;;0.68;0.40;;;29.40;53.80;;;;;;4057749;29;20051;-44
2022/12/27 04:56:32;;;;;;;1.02;0.47;;;29.70;53.40;;;;;;4061581;29;20051;-51
2022/12/27 05:04:16;;;;;;;0.95;0.60;;;29.80;53.10;;;;;;4052024;29;20040;-48
2022/12/27 05:06:39;;;;;;;0.50;0.40;;;29.90;53.20;;;;;;4061338;29;20050;-48
2022/12/27 05:14:22;;;;;;;0.75;0.43;;;29.90;52.60;;;;;;4054082;29;20059;-44
2022/12/27 05:16:44;;;;;;;0.90;0.50;;;29.90;52.40;;;;;;4058012;29;20036;-46
2022/12/27 05:19:09;;;;;;;0.63;0.40;;;30.00;52.20;;;;;;4059236;29;20252;-43
2022/12/27 05:21:39;;;;;;;0.63;0.40;;;30.00;52.10;;;;;;4060142;29;20579;-42
2022/12/27 05:26:42;;;;;;;0.77;0.50;;;30.10;51.90;;;;;;4049915;29;20071;-45
2022/12/27 05:29:05;;;;;;;1.05;0.80;;;30.10;51.80;;;;;;4054937;29;20122;-46
2022/12/27 05:31:29;;;;;;;1.10;0.60;;;30.10;51.40;;;;;;4052953;29;20123;-44
2022/12/27 05:33:52;;;;;;;;;;;30.20;51.20;;;;;;4052739;29;20063;-43
2022/12/27 05:36:14;;;;;;;1.58;0.68;;;30.30;51.30;;;;;;4049287;29;19919;-43
2022/12/27 05:38:37;;;;;;;1.88;0.70;;;30.30;51.20;;;;;;4052028;29;20420;-47
2022/12/27 05:41:00;;;;;;;0.60;0.50;;;30.30;51.20;;;;;;4050279;29;20036;-46
2022/12/27 05:43:22;;;;;;;;;;;30.40;51.30;;;;;;4059330;29;20040;-49
2022/12/27 05:45:44;;;;;;;0.50;0.45;;;30.40;51.30;;;;;;4059111;29;19911;-45
2022/12/27 05:48:07;;;;;;;0.93;0.50;;;30.40;51.20;;;;;;4055705;29;20064;-45
2022/12/27 05:50:29;;;;;;;0.50;0.40;;;30.40;51.00;;;;;;4054472;29;20584;-44
2022/12/27 05:52:52;;;;;;;1.08;0.57;;;30.50;50.90;;;;;;4056242;29;20072;-46
2022/12/27 05:55:14;;;;;;;0.60;0.50;;;30.50;50.60;;;;;;4054829;29;20417;-47
2022/12/27 05:57:37;;;;;;;0.65;0.50;;;30.60;50.80;;;;;;4053415;29;20420;-44
2022/12/27 05:59:59;;;;;;;0.63;0.55;;;30.60;50.70;;;;;;4052104;29;20390;-47
2022/12/27 06:02:22;;;;;;;1.25;0.52;;;30.70;50.70;;;;;;4057679;29;20063;-44
2022/12/27 06:04:44;;;;;;;1.52;0.60;;;30.70;50.90;;;;;;4058608;29;20052;-42
2022/12/27 06:07:06;;;;;;;0.90;0.70;;;30.70;50.70;;;;;;4059307;29;20040;-43
2022/12/27 06:09:29;;;;;;;1.02;0.60;;;30.80;50.80;;;;;;4055668;29;20435;-48
2022/12/27 06:11:51;;;;;;;1.85;0.70;;;30.80;50.80;;;;;;4056602;29;20498;-46
2022/12/27 06:14:14;;;;;;;1.40;0.50;;;30.90;50.80;;;;;;4053952;29;20059;-51
2022/12/27 06:16:36;;;;;;;1.17;0.57;;;30.90;50.90;;;;;;4056863;29;20044;-44
2022/12/27 06:18:59;;;;;;;0.43;0.43;;;30.90;50.80;;;;;;4057141;29;20449;-47
2022/12/27 06:21:22;;;;;;;1.33;0.70;;;31.00;50.80;;;;;;4055234;29;20431;-47
2022/12/27 06:23:45;;;;;;;1.00;0.60;;;31.00;50.70;;;;;;4052039;29;20119;-47
2022/12/27 06:26:13;;;;;;;2.67;0.88;;;31.10;50.70;;;;;;4056106;29;20465;-45
2022/12/27 06:28:35;;;;;;;1.42;0.65;;;31.10;50.60;;;;;;4054204;29;20353;-43
2022/12/27 06:31:02;;;;;;;0.68;0.57;;;31.20;50.60;;;;;;4045219;29;20108;-46
2022/12/27 06:33:25;;;;;;;0.70;0.60;;;31.20;50.60;;;;;;4058049;29;20048;-46
2022/12/27 06:35:47;;;;;;;1.75;0.50;;;31.20;50.60;;;;;;4053907;29;20040;-45
2022/12/27 06:38:09;;;;;;;1.45;0.70;;;31.30;50.70;;;;;;4056641;29;20051;-44
2022/12/27 06:40:32;;;;;;;1.60;0.77;;;31.30;50.50;;;;;;4054868;29;20036;-45
2022/12/27 06:42:54;;;;;;;1.48;0.85;;;31.30;50.40;;;;;;4051365;29;20032;-42
2022/12/27 06:45:17;;;;;;;4.22;1.10;;;31.40;51.00;;;;;;4050892;29;20051;-44
2022/12/27 06:47:39;;;;;;;6.30;0.95;;;31.50;52.00;;;;;;4047745;29;20032;-46
2022/12/27 06:50:02;;;;;;;1.92;0.80;;;31.60;52.80;;;;;;4046600;29;20067;-45
2022/12/27 06:52:25;;;;;;;2.10;0.55;;;31.70;54.10;;;;;;4035991;29;20408;-47
2022/12/27 06:54:47;;;;;;;2.78;1.02;;;31.80;53.70;;;;;;4054689;29;20682;-46
2022/12/27 06:57:10;;;;;;;2.60;0.75;;;31.80;54.00;;;;;;4056644;29;20070;-46
2022/12/27 06:59:32;;;;;;;4.53;0.68;;;31.90;54.80;;;;;;4054666;29;20540;-41
2022/12/27 07:01:54;;;;;;;4.43;1.27;;;31.90;55.50;;;;;;4036735;29;20036;-45
2022/12/27 07:04:17;;;;;;;1.80;0.60;;;31.90;56.10;;;;;;4048098;29;20044;-46
2022/12/27 07:06:40;;;;;;;4.30;0.57;;;31.80;56.40;;;;;;4050753;29;20091;-45
2022/12/27 07:09:03;;;;;;;2.93;0.87;;;31.80;56.70;;;;;;4049400;29;20052;-47
2022/12/27 07:11:25;;;;;;;;;;;31.70;56.80;;;;;;4049171;29;20771;-46
2022/12/27 07:13:53;;;;;;;2.35;0.57;;;31.70;56.90;;;;;;4051046;29;19927;-45
2022/12/27 07:16:18;;;;;;;2.50;0.52;;;31.70;57.10;;;;;;4053771;29;20275;-43
2022/12/27 07:18:41;;;;;;;1.35;0.70;;;31.70;57.20;;;;;;4052896;29;20046;-45
2022/12/27 07:21:09;;;;;;;3.95;0.60;;;31.70;57.30;;;;;;4054148;29;20028;-42
2022/12/27 07:23:32;;;;;;;2.45;0.63;;;31.70;57.50;;;;;;4047715;29;20462;-42
2022/12/27 07:25:54;;;;;;;1.90;0.70;;;31.70;57.80;;;;;;4049247;29;20036;-46
2022/12/27 07:28:16;;;;;;;1.45;0.63;;;31.70;58.00;;;;;;4053168;29;20556;-45
2022/12/27 07:30:43;;;;;;;2.92;0.50;;;31.70;58.00;;;;;;4050001;29;20040;-44
2022/12/27 07:33:05;;;;;;;1.60;0.60;;;31.70;58.20;;;;;;4055856;29;20036;-43
2022/12/27 07:35:28;;;;;;;1.73;0.60;;;31.70;58.40;;;;;;4052509;29;20495;-43
2022/12/27 07:37:50;;;;;;;3.05;0.77;;;31.70;58.60;;;;;;4055120;29;20455;-44
2022/12/27 07:40:13;;;;;;;4.45;0.70;;;31.70;58.90;;;;;;4048525;29;20416;-45
2022/12/27 07:42:35;;;;;;;2.00;0.88;;;31.70;59.10;;;;;;4051906;29;20143;-43
2022/12/27 07:44:58;;;;;;;0.60;0.50;;;31.70;59.20;;;;;;4050241;29;20077;-47
2022/12/27 07:47:20;;;;;;;0.90;0.68;;;31.70;59.50;;;;;;4050165;29;20044;-48
2022/12/27 07:49:42;;;;;;;1.83;1.02;;;31.70;59.60;;;;;;4051244;29;20050;-46
2022/12/27 07:52:05;;;;;;;2.17;0.75;;;31.70;59.70;;;;;;4046359;29;20028;-49
2022/12/27 07:54:27;;;;;;;1.48;0.60;;;31.70;59.80;;;;;;4049240;29;20060;-48
2022/12/27 07:56:50;;;;;;;1.17;0.50;;;31.70;59.90;;;;;;4036389;29;20058;-46
2022/12/27 07:59:13;;;;;;;1.83;0.80;;;31.70;60.40;;;;;;4050376;29;20068;-46
2022/12/27 08:02:09;;;;;;;1.55;0.60;;;31.70;60.70;;;;;;4033319;29;20416;-47
2022/12/27 08:04:24;;;;;;;1.38;0.65;;;31.70;60.80;;;;;;4053019;29;20036;-44
2022/12/27 08:06:47;;;;;;;4.47;0.70;;;31.80;61.10;;;;;;4044784;29;20046;-43
2022/12/27 08:09:14;;;;;;;2.35;0.93;;;31.80;61.50;;;;;;4053292;29;20274;-49
2022/12/27 08:11:37;;;;;;;2.00;0.45;;;31.80;61.90;;;;;;4053475;29;20441;-50
2022/12/27 08:13:59;;;;;;;1.13;0.50;;;31.80;62.00;;;;;;4056049;29;20043;-52
2022/12/27 08:16:26;;;;;;;1.88;0.60;;;31.80;62.00;;;;;;4045011;29;20057;-44
2022/12/27 08:18:48;;;;;;;1.92;0.57;;;31.90;61.90;;;;;;4055949;29;20496;-43
2022/12/27 08:21:11;;;;;;;1.52;0.50;;;31.80;62.40;;;;;;4057332;29;20038;-45
2022/12/27 08:23:33;;;;;;;0.70;0.50;;;31.80;61.60;;;;;;4056188;29;20858;-46
2022/12/27 08:25:56;;;;;;;1.58;0.77;;;31.80;61.70;;;;;;4060015;29;20040;-50
2022/12/27 08:28:18;;;;;;;1.07;0.60;;;31.80;61.80;;;;;;4056820;29;20126;-53
2022/12/27 08:30:43;;;;;;;1.13;0.60;;;31.80;61.60;;;;;;4057516;29;20972;-46
2022/12/27 08:33:05;;;;;;;1.02;0.60;;;31.80;61.80;;;;;;4057177;29;20039;-47
2022/12/27 08:35:27;;;;;;;1.02;0.50;;;31.70;62.40;;;;;;4058060;29;20228;-43
2022/12/27 08:37:50;;;;;;;1.17;0.60;;;31.70;61.80;;;;;;4057295;29;20489;-42
2022/12/27 08:40:12;;;;;;;2.65;0.77;;;31.70;61.60;;;;;;4058587;29;20039;-47
2022/12/27 08:42:35;;;;;;;2.90;0.60;;;31.80;61.90;;;;;;4059907;29;20036;-42
2022/12/27 08:44:57;;;;;;;1.15;0.45;;;31.70;61.90;;;;;;4056119;29;20036;-47
2022/12/27 08:47:19;;;;;;;3.42;1.20;;;31.70;61.80;;;;;;4054821;29;20187;-42
2022/12/27 08:49:42;;;;;;;1.23;0.50;;;31.70;61.80;;;;;;4061290;29;20051;-44
2022/12/27 08:52:04;;;;;;;1.67;1.00;;;31.70;61.90;;;;;;4056485;29;20028;-47
2022/12/27 08:54:27;;;;;;;28.37;1.20;;;31.70;61.90;;;;;;4053898;29;20124;-42
2022/12/27 08:56:49;;;;;;;1.27;0.55;;;31.70;62.00;;;;;;4056817;29;20323;-43
2022/12/27 08:59:12;;;;;;;2.45;0.55;;;31.70;62.00;;;;;;4056329;29;20048;-48
2022/12/27 09:01:34;;;;;;;1.15;0.55;;;31.70;61.90;;;;;;4058170;29;20487;-48
2022/12/27 09:03:56;;;;;;;1.65;0.73;;;31.60;61.90;;;;;;4051456;29;20059;-43
2022/12/27 09:06:22;;;;;;;3.75;1.05;;;31.70;62.00;;;;;;4058858;29;20044;-47
2022/12/27 09:08:46;;;;;;;1.85;0.85;;;31.60;61.80;;;;;;4056487;29;20217;-48
2022/12/27 09:11:19;;;;;;;1.73;0.68;;;31.60;61.80;;;;;;4058814;29;20048;-44
2022/12/27 09:13:41;;;;;;;1.42;0.70;;;31.60;61.70;;;;;;4060207;29;20608;-44
2022/12/27 09:16:09;;;;;;;1.10;0.67;;;31.60;61.50;;;;;;4060270;29;20111;-46
2022/12/27 09:18:32;;;;;;;1.95;0.63;;;31.60;61.40;;;;;;4057762;29;20036;-41
2022/12/27 09:20:54;;;;;;;2.07;0.87;;;31.60;61.40;;;;;;4059008;29;20044;-43
2022/12/27 09:23:17;;;;;;;2.85;0.90;;;31.60;61.50;;;;;;4057112;29;20515;-42
2022/12/27 09:25:39;;;;;;;1.42;0.70;;;31.50;61.50;;;;;;4059970;29;20123;-48
2022/12/27 09:28:02;;;;;;;2.33;0.93;;;31.50;61.60;;;;;;4054216;29;20064;-44
2022/12/27 09:30:24;;;;;;;1.15;0.70;;;31.50;61.60;;;;;;4048316;29;20536;-46
2022/12/27 09:32:46;;;;;;;2.78;1.10;;;31.50;61.50;;;;;;4051028;29;20044;-41
2022/12/27 09:35:09;;;;;;;3.03;1.02;;;31.50;61.70;;;;;;4053443;29;20452;-43
2022/12/27 09:37:32;;;;;;;2.72;0.93;;;31.50;62.10;;;;;;4053226;29;20070;-40
2022/12/27 09:39:55;;;;;;;2.10;0.80;;;31.50;62.00;;;;;;4049948;29;20058;-44
2022/12/27 09:42:52;;;;;;;2.75;1.00;;;31.50;60.80;;;;;;4048363;29;20036;-46
2022/12/27 09:45:24;;;;;;;3.13;1.02;;;31.50;60.70;;;;;;4049362;29;20056;-44
2022/12/27 09:47:53;;;;;;;2.33;0.88;;;31.50;61.50;;;;;;4050192;29;20078;-45
2022/12/27 09:50:41;;;;;;;3.50;0.90;;;31.50;61.90;;;;;;4049885;29;20329;-43
2022/12/27 09:53:07;;;;;;;2.63;0.95;;;31.50;61.40;;;;;;4051668;29;20229;-45
2022/12/27 09:55:35;;;;;;;1.45;0.73;;;31.50;60.70;;;;;;4052413;29;20044;-42
2022/12/27 09:58:17;;;;;;;1.27;0.70;;;31.50;60.20;;;;;;4050941;29;20051;-42
2022/12/27 10:00:39;;;;;;;1.33;0.70;;;31.50;59.70;;;;;;4041349;29;20062;-41
2022/12/27 10:03:05;;;;;;;1.70;0.77;;;31.50;59.40;;;;;;4053917;29;20040;-43
2022/12/27 10:05:33;;;;;;;1.60;0.70;;;31.50;59.10;;;;;;4037915;29;20051;-41
2022/12/27 10:08:14;;;;;;;2.55;0.98;;;31.50;58.80;;;;;;4055767;29;20505;-42
2022/12/27 10:11:05;;;;;;;1.55;0.80;;;31.50;58.60;;;;;;4050213;29;20682;-41
2022/12/27 10:13:47;;;;;;;0.85;0.40;;;31.50;58.40;;;;;;4042711;29;20474;-45
2022/12/27 10:16:32;;;;;;;1.45;0.70;;;31.40;58.10;;;;;;4050455;29;20867;-40
2022/12/27 10:19:19;;;;;;;0.90;0.75;;;31.40;57.90;;;;;;4050324;29;20117;-44
2022/12/27 10:22:00;;;;;;;1.48;0.60;;;31.40;58.80;;;;;;4051963;29;20374;-48
2022/12/27 10:24:44;;;;;;;2.97;0.80;;;31.30;59.30;;;;;;4050877;29;20491;-44
2022/12/27 10:27:22;;;;;;;2.55;0.68;;;31.20;60.00;;;;;;4042876;29;20044;-41
2022/12/27 10:29:45;;;;;;;1.95;0.70;;;31.20;60.40;;;;;;4052002;29;20043;-44
2022/12/27 10:32:11;;;;;;;3.00;0.77;;;31.10;60.70;;;;;;4044629;29;20167;-42
2022/12/27 10:34:34;;;;;;;1.73;0.50;;;31.00;60.60;;;;;;4053720;29;20051;-44
2022/12/27 10:36:56;;;;;;;1.98;0.57;;;31.00;60.60;;;;;;4041957;29;20045;-41
2022/12/27 10:39:27;;;;;;;2.77;1.03;;;31.00;60.70;;;;;;4042447;29;20556;-43
2022/12/27 10:42:13;;;;;;;2.25;0.77;;;30.90;60.60;;;;;;4057539;29;20035;-45
2022/12/27 10:44:36;;;;;;;3.55;0.77;;;30.80;60.70;;;;;;4048753;29;20059;-43
2022/12/27 10:46:59;;;;;;;2.67;0.85;;;30.90;60.50;;;;;;4055343;29;20044;-47
2022/12/27 10:49:30;;;;;;;2.05;0.70;;;30.90;59.80;;;;;;4047800;29;20044;-48
2022/12/27 10:51:57;;;;;;;0.95;0.43;;;30.90;59.90;;;;;;4056380;29;20066;-46
2022/12/27 10:54:29;;;;;;;2.17;0.60;;;30.90;60.90;;;;;;4048976;29;20690;-42
2022/12/27 10:56:52;;;;;;;0.93;0.63;;;30.80;60.40;;;;;;4053554;29;20207;-43
2022/12/27 10:59:20;;;;;;;1.13;0.52;;;30.80;60.40;;;;;;4055667;29;20040;-41
2022/12/27 11:01:44;;;;;;;1.30;0.82;;;30.80;60.30;;;;;;4056213;29;20040;-42
2022/12/27 11:04:19;;;;;;;1.10;0.55;;;30.80;60.70;;;;;;4057668;29;20111;-46
2022/12/27 11:06:43;;;;;;;4.13;0.98;;;30.70;61.00;;;;;;4054610;29;20449;-49
2022/12/27 11:09:32;;;;;;;1.60;0.65;;;30.60;61.50;;;;;;4052612;29;20075;-41
2022/12/27 11:12:13;;;;;;;1.88;0.77;;;30.60;61.70;;;;;;4051821;29;20450;-46
2022/12/27 11:14:36;;;;;;;1.02;0.60;;;30.60;61.80;;;;;;4048465;29;20793;-44
2022/12/27 11:16:59;;;;;;;2.80;0.50;;;30.60;62.00;;;;;;4035829;29;20945;-43
2022/12/27 11:19:26;;;;;;;3.15;0.90;;;30.60;61.80;;;;;;4050434;29;20068;-45
2022/12/27 11:21:49;;;;;;;2.38;0.57;;;30.60;62.10;;;;;;4050013;29;20067;-46
2022/12/27 11:24:15;;;;;;;1.13;0.77;;;30.60;62.00;;;;;;4052304;29;20045;-42
2022/12/27 11:27:00;;;;;;;1.33;0.80;;;30.60;62.20;;;;;;4053438;29;20043;-43
2022/12/27 11:29:29;;;;;;;1.50;0.60;;;30.60;62.30;;;;;;4045159;29;21851;-42
2022/12/27 11:31:53;;;;;;;1.70;0.50;;;30.60;62.30;;;;;;4048289;29;20536;-44
2022/12/27 11:34:23;;;;;;;1.90;0.77;;;30.60;62.40;;;;;;4047387;29;20090;-46
2022/12/27 11:36:51;;;;;;;2.35;0.85;;;30.50;63.00;;;;;;4036840;29;20045;-49
2022/12/27 11:39:36;;;;;;;3.97;0.70;;;30.50;61.80;;;;;;4049630;29;20063;-48
2022/12/27 11:42:00;;;;;;;1.13;0.70;;;30.40;61.20;;;;;;4029214;29;20036;-50
2022/12/27 11:44:28;;;;;;;3.00;0.90;;;30.40;61.60;;;;;;4035061;29;20048;-45
2022/12/27 11:47:02;;;;;;;2.13;1.00;;;30.30;62.20;;;;;;4044631;29;20040;-45
2022/12/27 11:49:35;;;;;;;2.50;0.80;;;30.20;62.60;;;;;;4048908;29;20041;-43
2022/12/27 11:52:28;;;;;;;2.90;0.77;;;30.20;62.80;;;;;;4048690;29;20179;-45
2022/12/27 11:54:53;;;;;;;2.42;0.95;;;30.20;63.20;;;;;;4049183;29;20074;-45
2022/12/27 11:57:30;;;;;;;1.35;0.68;;;30.20;63.40;;;;;;4050883;29;20040;-48
2022/12/27 12:00:26;;;;;;;2.60;0.82;;;30.10;63.50;;;;;;4048247;29;20270;-46
2022/12/27 12:03:13;;;;;;;1.15;0.60;;;30.10;63.50;;;;;;4023538;29;20032;-44
2022/12/27 12:05:45;;;;;;;0.63;0.57;;;30.10;63.60;;;;;;4049186;29;20126;-44
2022/12/27 12:08:45;;;;;;;2.65;0.80;;;30.10;63.50;;;;;;4047778;29;20118;-46
2022/12/27 12:11:17;;;;;;;1.88;0.77;;;30.10;63.70;;;;;;4049757;29;20911;-42
2022/12/27 12:14:16;;;;;;;1.55;0.60;;;30.00;63.80;;;;;;4035447;29;20040;-46
2022/12/27 12:16:56;;;;;;;1.45;0.50;;;30.00;63.60;;;;;;4047811;29;20052;-42
2022/12/27 12:19:34;;;;;;;1.08;0.55;;;30.00;63.90;;;;;;4052227;29;20048;-44
2022/12/27 12:22:13;;;;;;;2.15;0.70;;;30.00;64.00;;;;;;4050119;29;20051;-47
2022/12/27 12:24:42;;;;;;;1.25;0.70;;;30.00;64.00;;;;;;4049911;29;20624;-45
2022/12/27 12:27:25;;;;;;;1.08;0.70;;;30.00;64.30;;;;;;4048379;29;20352;-43
2022/12/27 12:30:15;;;;;;;0.52;0.43;;;30.00;64.30;;;;;;4046983;29;20063;-43
2022/12/27 12:32:43;;;;;;;1.10;0.60;;;29.90;64.50;;;;;;4048190;29;20304;-44
2022/12/27 12:35:30;;;;;;;4.60;0.65;;;29.90;64.50;;;;;;4054661;29;20052;-42
2022/12/27 12:38:16;;;;;;;1.98;0.80;;;29.90;64.70;;;;;;4054968;29;20044;-42
2022/12/27 12:40:57;;;;;;;1.10;0.45;;;29.90;64.50;;;;;;4050727;29;20051;-45
2022/12/27 12:43:37;;;;;;;1.88;0.77;;;29.80;64.20;;;;;;4050114;29;20048;-45
2022/12/27 12:46:40;;;;;;;1.48;0.60;;;29.80;64.60;;;;;;4054833;29;20122;-47
2022/12/27 12:49:44;;;;;;;1.63;0.70;;;29.80;64.80;;;;;;4053931;29;20165;-43
2022/12/27 12:52:24;;;;;;;1.65;0.70;;;29.80;64.90;;;;;;4056155;29;20044;-44
2022/12/27 12:55:12;;;;;;;1.13;0.50;;;29.80;65.20;;;;;;4048773;29;20048;-45
2022/12/27 12:57:53;;;;;;;1.23;0.68;;;29.80;65.20;;;;;;4055938;29;20040;-45
2022/12/27 13:00:24;;;;;;;2.45;0.95;;;29.80;65.20;;;;;;4052127;29;20072;-44
2022/12/27 13:03:14;;;;;;;1.63;0.65;;;29.70;65.60;;;;;;4050729;29;20169;-44
2022/12/27 13:06:01;;;;;;;1.45;0.70;;;29.70;65.50;;;;;;4056068;29;20076;-43
2022/12/27 13:08:49;;;;;;;3.15;0.95;;;29.70;65.80;;;;;;4052553;29;20055;-43
2022/12/27 13:11:44;;;;;;;0.55;0.45;;;29.70;66.10;;;;;;4027169;29;20071;-49
2022/12/27 13:14:31;;;;;;;0.85;0.40;;;29.70;66.00;;;;;;4052855;29;20905;-43
2022/12/27 13:17:02;;;;;;;0.82;0.52;;;29.70;66.30;;;;;;4053354;29;20077;-47
2022/12/27 13:20:02;;;;;;;1.23;0.40;;;29.70;66.20;;;;;;4052611;29;20151;-44
2022/12/27 13:23:04;;;;;;;0.63;0.60;;;29.70;66.50;;;;;;4043516;29;20080;-44
2022/12/27 13:25:49;;;;;;;0.65;0.35;;;29.70;66.50;;;;;;4051525;29;20229;-41
2022/12/27 13:28:29;;;;;;;;;;;29.60;66.80;;;;;;4057195;29;20040;-42
2022/12/27 13:31:32;;;;;;;1.48;0.50;;;29.70;66.90;;;;;;4049558;29;19915;-42
2022/12/27 13:34:21;;;;;;;2.58;0.65;;;29.60;67.00;;;;;;4046791;29;20060;-47
2022/12/27 13:37:04;;;;;;;1.58;0.57;;;29.60;67.10;;;;;;4060074;29;20549;-42
2022/12/27 13:39:36;;;;;;;2.80;0.70;;;29.60;67.30;;;;;;4055688;29;20498;-47
2022/12/27 13:42:21;;;;;;;1.00;0.55;;;29.60;67.40;;;;;;4059092;29;20040;-44
2022/12/27 13:44:54;;;;;;;2.00;0.77;;;29.60;67.30;;;;;;4058901;29;20207;-47
2022/12/27 13:47:50;;;;;;;0.82;0.40;;;29.60;67.40;;;;;;4058451;29;20040;-45
2022/12/27 13:50:21;;;;;;;2.65;0.82;;;29.60;67.40;;;;;;4059098;29;20044;-48
2022/12/27 13:52:55;;;;;;;1.55;0.80;;;29.60;67.60;;;;;;4064207;29;20067;-44
2022/12/27 13:55:54;;;;;;;1.52;0.45;;;29.60;67.70;;;;;;4061005;29;20146;-45
2022/12/27 13:58:50;;;;;;;1.25;0.60;;;29.50;67.50;;;;;;4060386;29;20036;-47
2022/12/27 14:01:24;;;;;;;3.33;0.88;;;29.50;67.50;;;;;;4066342;29;20496;-46
2022/12/27 14:03:53;;;;;;;1.23;0.57;;;29.50;67.60;;;;;;4058350;29;20464;-48
2022/12/27 14:06:39;;;;;;;1.80;0.68;;;29.50;67.90;;;;;;4064754;29;20429;-51
2022/12/27 14:09:14;;;;;;;1.13;0.57;;;29.50;67.80;;;;;;4057916;29;20520;-45
2022/12/27 14:12:16;;;;;;;2.45;0.73;;;29.50;68.00;;;;;;4060646;29;20385;-49
2022/12/27 14:14:41;;;;;;;0.90;0.40;;;29.50;68.00;;;;;;4053924;29;20134;-51
2022/12/27 14:17:27;;;;;;;1.42;0.47;;;29.40;67.90;;;;;;4069966;29;20114;-50
2022/12/27 14:20:39;;;;;;;0.63;0.45;;;29.40;68.20;;;;;;4059766;29;20054;-52
2022/12/27 14:23:22;;;;;;;1.48;0.70;;;29.40;68.10;;;;;;4065253;29;20048;-50
2022/12/27 14:26:03;;;;;;;0.90;0.50;;;29.40;68.20;;;;;;4064649;29;20046;-47
2022/12/27 14:28:51;;;;;;;2.05;0.80;;;29.40;68.10;;;;;;4057935;29;20116;-48
2022/12/27 14:31:44;;;;;;;2.35;0.55;;;29.40;68.40;;;;;;4054170;29;20091;-48
2022/12/27 14:34:19;;;;;;;0.60;0.40;;;29.40;68.30;;;;;;4048573;29;20089;-46
2022/12/27 14:36:59;;;;;;;1.55;0.50;;;29.40;68.30;;;;;;4062088;29;20297;-47
2022/12/27 14:39:52;;;;;;;1.25;0.63;;;29.40;68.50;;;;;;4064296;29;20044;-50